Time;durP1;ratioP1;P1;durP2;ratioP2;P2;SDS_P1;SDS_P2;PMS_P1;PMS_P2;Temp;Humidity;BMP_temperature;BMP_pressure;BME280_temperature;BME280_humidity;BME280_pressure;Samples;Min_cycle;Max_cycle;Signal;HPM_P1;HPM_P2
2024/04/15 00:00:31;;;;;;;8.15;4.05;;;410.20;1920.00;;;;;;5387134;26;20023;-71
2024/04/15 00:02:57;;;;;;;10.57;3.92;;;410.20;1920.00;;;;;;5412002;26;20387;-71
2024/04/15 00:05:22;;;;;;;8.02;4.30;;;410.20;1920.00;;;;;;5392867;26;20008;-71
2024/04/15 00:07:51;;;;;;;6.53;3.90;;;410.20;1920.00;;;;;;5415348;26;19992;-71
2024/04/15 00:10:17;;;;;;;9.32;4.20;;;410.10;1920.00;;;;;;5399500;26;20330;-71
2024/04/15 00:12:42;;;;;;;6.53;4.20;;;410.10;1920.00;;;;;;5402616;26;20012;-71
2024/04/15 00:15:09;;;;;;;7.10;3.67;;;410.20;1920.00;;;;;;5379230;26;20000;-71
2024/04/15 00:17:34;;;;;;;6.15;3.40;;;410.10;1920.00;;;;;;5388771;26;20011;-72
2024/04/15 00:20:00;;;;;;;6.32;3.70;;;410.10;1920.00;;;;;;5378555;26;20000;-71
2024/04/15 00:22:27;;;;;;;5.68;3.53;;;410.10;1920.00;;;;;;5378872;26;20443;-71
2024/04/15 00:24:53;;;;;;;6.55;3.40;;;410.00;1945.60;;;;;;5378909;26;20003;-71
2024/04/15 00:27:19;;;;;;;5.35;3.40;;;410.00;1945.60;;;;;;5378905;26;20012;-70
2024/04/15 00:29:45;;;;;;;7.55;3.65;;;410.00;1971.20;;;;;;5400059;26;19995;-71
2024/04/15 00:32:10;;;;;;;7.68;3.70;;;410.10;1945.60;;;;;;5398832;26;20249;-70
2024/04/15 00:34:36;;;;;;;9.73;3.80;;;410.10;1971.20;;;;;;5384400;26;20015;-71
2024/04/15 00:37:02;;;;;;;7.53;4.10;;;410.10;1971.20;;;;;;5378296;26;20000;-71
2024/04/15 00:39:28;;;;;;;10.32;4.53;;;409.90;1971.20;;;;;;5378831;26;20004;-71
2024/04/15 00:41:53;;;;;;;9.88;4.30;;;409.90;1996.80;;;;;;5394196;26;20028;-71
2024/04/15 00:44:19;;;;;;;10.48;4.07;;;409.90;1996.80;;;;;;5396152;26;20320;-71
2024/04/15 00:46:45;;;;;;;7.18;3.80;;;409.90;1996.80;;;;;;5380748;26;20012;-71
2024/04/15 00:49:12;;;;;;;7.57;3.92;;;410.00;1971.20;;;;;;5382048;26;20092;-71
2024/04/15 00:51:42;;;;;;;7.03;3.53;;;410.00;1971.20;;;;;;5385373;26;20012;-71
2024/04/15 00:54:09;;;;;;;8.10;3.92;;;410.00;1996.80;;;;;;5378150;26;20018;-71
2024/04/15 00:56:36;;;;;;;6.32;3.70;;;410.00;1971.20;;;;;;5407615;26;20004;-71
2024/04/15 00:59:02;;;;;;;7.90;3.60;;;410.10;1971.20;;;;;;5404772;26;20011;-71
2024/04/15 01:01:28;;;;;;;7.88;4.05;;;410.10;1996.80;;;;;;5384936;26;20339;-71
2024/04/15 01:03:57;;;;;;;7.60;3.67;;;410.10;1971.20;;;;;;5384810;26;20012;-71
2024/04/15 01:06:24;;;;;;;9.45;3.67;;;410.20;1996.80;;;;;;5406451;26;20338;-71
2024/04/15 01:08:50;;;;;;;11.35;4.13;;;410.10;1971.20;;;;;;5391838;26;20033;-71
2024/04/15 01:11:16;;;;;;;6.80;3.60;;;410.10;1971.20;;;;;;5377849;26;20437;-71
2024/04/15 01:13:42;;;;;;;9.18;3.90;;;410.20;1971.20;;;;;;5377913;26;20008;-71
2024/04/15 01:16:07;;;;;;;6.30;3.60;;;410.20;1971.20;;;;;;5378138;26;20720;-71
2024/04/15 01:18:33;;;;;;;7.53;3.30;;;410.20;1971.20;;;;;;5377997;26;20036;-71
2024/04/15 01:20:59;;;;;;;8.57;3.85;;;410.10;1996.80;;;;;;5401779;26;20073;-71
2024/04/15 01:23:33;;;;;;;8.00;3.60;;;410.10;2022.40;;;;;;5410997;26;20341;-71
2024/04/15 01:26:00;;;;;;;7.50;3.88;;;410.20;2022.40;;;;;;5397706;26;20463;-71
2024/04/15 01:28:26;;;;;;;10.43;3.90;;;410.20;2048.00;;;;;;5389638;26;20018;-71
2024/04/15 01:30:52;;;;;;;9.13;3.95;;;410.20;2048.00;;;;;;5410681;26;20007;-71
2024/04/15 01:33:18;;;;;;;6.88;3.90;;;410.20;2048.00;;;;;;5410997;26;20323;-71
2024/04/15 01:35:44;;;;;;;9.82;4.13;;;410.10;2073.60;;;;;;5411085;26;20000;-71
2024/04/15 01:38:09;;;;;;;6.35;3.97;;;410.00;2073.60;;;;;;5410752;26;20004;-71
2024/04/15 01:40:35;;;;;;;9.88;4.18;;;410.00;2099.20;;;;;;5410704;26;20000;-71
2024/04/15 01:43:01;;;;;;;8.88;3.67;;;409.90;2150.40;;;;;;5407267;26;20000;-71
2024/04/15 01:45:27;;;;;;;8.68;3.70;;;410.00;2150.40;;;;;;5380956;26;20015;-71
2024/04/15 01:47:52;;;;;;;9.27;3.80;;;410.00;2176.00;;;;;;5377542;26;20004;-71
2024/04/15 01:50:20;;;;;;;5.80;3.50;;;410.00;2201.60;;;;;;5377296;26;20015;-71
2024/04/15 01:52:46;;;;;;;10.35;4.00;;;410.00;2201.60;;;;;;5377332;26;19996;-72
2024/04/15 01:55:11;;;;;;;9.55;3.80;;;409.90;2227.20;;;;;;5379096;26;20336;-72
2024/04/15 01:57:37;;;;;;;11.52;4.00;;;409.90;2227.20;;;;;;5406902;26;20019;-71
2024/04/15 02:00:04;;;;;;;9.68;3.95;;;409.90;2252.80;;;;;;5414325;26;20003;-72
2024/04/15 02:02:30;;;;;;;8.57;4.35;;;409.80;2252.80;;;;;;5384672;26;20008;-71
2024/04/15 02:04:56;;;;;;;7.30;4.00;;;;;;;;;;5394394;26;20338;-72
2024/04/15 02:07:22;;;;;;;13.93;4.82;;;;;;;;;;5384754;26;20036;-72
2024/04/15 02:09:48;;;;;;;11.40;4.50;;;;;;;;;;5380684;26;20015;-72
2024/04/15 02:12:14;;;;;;;9.52;4.40;;;384.80;2329.60;;;;;;5380661;26;19996;-72
2024/04/15 02:14:40;;;;;;;10.50;4.75;;;384.50;2329.60;;;;;;5380432;26;20019;-71
2024/04/15 02:17:06;;;;;;;8.98;4.22;;;384.30;2329.60;;;;;;5380944;26;19996;-71
2024/04/15 02:19:32;;;;;;;8.95;4.63;;;384.20;2329.60;;;;;;5379806;26;20011;-70
2024/04/15 02:21:58;;;;;;;7.78;4.35;;;;;;;;;;5381498;26;20012;-71
2024/04/15 02:24:27;;;;;;;7.93;4.60;;;;;;;;;;5380942;26;20072;-72
2024/04/15 02:26:53;;;;;;;9.27;5.13;;;;;;;;;;5393316;26;20001;-71
2024/04/15 02:29:19;;;;;;;7.82;4.53;;;384.30;2329.60;;;;;;5413468;26;20072;-71
2024/04/15 02:31:45;;;;;;;9.52;4.82;;;359.30;2329.60;;;;;;5413822;26;20022;-71
2024/04/15 02:34:11;;;;;;;11.40;5.25;;;359.20;2329.60;;;;;;5413816;26;20048;-71
2024/04/15 02:36:36;;;;;;;8.35;4.20;;;359.20;2329.60;;;;;;5412968;26;20014;-71
2024/04/15 02:39:02;;;;;;;7.57;4.63;;;359.20;2329.60;;;;;;5395188;26;20008;-71
2024/04/15 02:41:28;;;;;;;8.15;4.63;;;359.30;2329.60;;;;;;5386149;26;20000;-71
2024/04/15 02:43:54;;;;;;;8.60;5.20;;;359.00;2329.60;;;;;;5380507;26;20015;-71
2024/04/15 02:46:20;;;;;;;9.32;4.82;;;359.20;2329.60;;;;;;5397675;26;20003;-71
2024/04/15 02:48:45;;;;;;;9.80;5.18;;;359.10;2329.60;;;;;;5415984;26;19999;-71
2024/04/15 02:51:11;;;;;;;11.13;6.03;;;359.00;2329.60;;;;;;5415564;26;19996;-71
2024/04/15 02:53:37;;;;;;;17.45;8.27;;;358.90;2329.60;;;;;;5413117;26;20011;-71
2024/04/15 02:56:03;;;;;;;11.25;6.72;;;358.90;2329.60;;;;;;5394206;26;19996;-71
2024/04/15 02:58:28;;;;;;;9.68;5.80;;;358.90;2329.60;;;;;;5415971;26;20065;-70
2024/04/15 03:00:56;;;;;;;8.60;5.22;;;358.80;2329.60;;;;;;5402894;26;20040;-71
2024/04/15 03:03:22;;;;;;;9.45;5.28;;;358.70;2329.60;;;;;;5380424;26;20046;-71
2024/04/15 03:05:47;;;;;;;7.32;4.70;;;358.70;2329.60;;;;;;5400757;26;20007;-71
2024/04/15 03:08:13;;;;;;;8.95;5.45;;;358.70;2329.60;;;;;;5411343;26;19999;-71
2024/04/15 03:10:39;;;;;;;8.00;4.75;;;358.70;2329.60;;;;;;5388796;26;20546;-72
2024/04/15 03:13:05;;;;;;;7.70;4.82;;;358.70;2329.60;;;;;;5415514;26;20000;-71
2024/04/15 03:15:31;;;;;;;10.63;5.10;;;358.70;2329.60;;;;;;5415823;26;20003;-71
2024/04/15 03:17:57;;;;;;;9.05;5.25;;;358.70;2329.60;;;;;;5408529;26;20085;-71
2024/04/15 03:20:26;;;;;;;9.68;4.70;;;358.70;2329.60;;;;;;5415718;26;20006;-70
2024/04/15 03:22:52;;;;;;;8.48;5.18;;;358.70;2329.60;;;;;;5415503;26;19996;-71
2024/04/15 03:25:18;;;;;;;10.38;5.07;;;;;;;;;;5406325;26;20006;-71
2024/04/15 03:27:45;;;;;;;11.20;5.47;;;;;;;;;;5401020;26;19996;-71
2024/04/15 03:30:12;;;;;;;8.45;4.75;;;;;;;;;;5402132;26;20004;-71
2024/04/15 03:32:38;;;;;;;9.32;5.45;;;;;;;;;;5416230;26;20003;-71
2024/04/15 03:35:04;;;;;;;9.70;5.30;;;;;;;;;;5414580;26;20045;-71
2024/04/15 03:37:30;;;;;;;8.23;5.50;;;358.70;2329.60;;;;;;5389824;26;20012;-71
2024/04/15 03:39:56;;;;;;;10.63;5.25;;;;;;;;;;5392432;26;20004;-71
2024/04/15 03:42:22;;;;;;;11.60;5.53;;;;;;;;;;5393384;26;20454;-71
2024/04/15 03:44:53;;;;;;;8.93;5.20;;;358.60;2329.60;;;;;;5391224;26;20022;-71
2024/04/15 03:47:18;;;;;;;10.63;5.45;;;333.70;2329.60;;;;;;5390141;26;20007;-71
2024/04/15 03:49:44;;;;;;;9.45;5.50;;;333.70;2329.60;;;;;;5394964;26;20005;-71
2024/04/15 03:52:10;;;;;;;7.45;4.97;;;333.60;2329.60;;;;;;5389253;26;20020;-71
2024/04/15 03:54:36;;;;;;;12.52;5.30;;;333.70;2329.60;;;;;;5386121;26;20019;-71
2024/04/15 03:57:02;;;;;;;7.60;4.93;;;333.70;2329.60;;;;;;5390369;26;19996;-71
2024/04/15 03:59:27;;;;;;;7.85;5.13;;;333.70;2329.60;;;;;;5383513;26;20014;-71
2024/04/15 04:01:53;;;;;;;9.18;5.03;;;358.40;2329.60;;;;;;5390207;26;19996;-71
2024/04/15 04:04:18;;;;;;;10.32;4.90;;;358.50;2329.60;;;;;;5392037;26;20361;-71
2024/04/15 04:06:44;;;;;;;10.20;4.97;;;358.60;2329.60;;;;;;5388223;26;20015;-74
2024/04/15 04:09:10;;;;;;;10.48;5.20;;;358.60;2329.60;;;;;;5409718;26;20007;-71
2024/04/15 04:11:35;;;;;;;10.45;5.40;;;358.60;2329.60;;;;;;5380124;26;20427;-71
2024/04/15 04:14:01;;;;;;;11.18;5.15;;;358.60;2329.60;;;;;;5384839;26;20019;-73
2024/04/15 04:16:27;;;;;;;8.25;4.70;;;358.50;2329.60;;;;;;5405712;26;20330;-72
2024/04/15 04:18:53;;;;;;;11.07;5.25;;;358.40;2329.60;;;;;;5379321;26;20016;-73
2024/04/15 04:21:18;;;;;;;8.93;5.10;;;358.40;2329.60;;;;;;5379784;26;20507;-73
2024/04/15 04:23:44;;;;;;;11.23;5.32;;;358.40;2329.60;;;;;;5400587;26;20663;-72
2024/04/15 04:26:10;;;;;;;14.75;5.32;;;358.40;2329.60;;;;;;5390848;26;20015;-72
2024/04/15 04:28:35;;;;;;;11.95;5.10;;;358.50;2329.60;;;;;;5389415;26;20343;-71
2024/04/15 04:31:05;;;;;;;7.75;5.50;;;358.60;2329.60;;;;;;5400569;26;20075;-72
2024/04/15 04:33:32;;;;;;;9.52;4.43;;;358.70;2329.60;;;;;;5398525;26;20000;-72
2024/04/15 04:35:58;;;;;;;8.40;4.82;;;358.80;2329.60;;;;;;5402396;26;20084;-72
2024/04/15 04:38:24;;;;;;;7.60;4.82;;;358.90;2329.60;;;;;;5396875;26;20050;-72
2024/04/15 04:41:00;;;;;;;9.05;5.00;;;358.90;2329.60;;;;;;5393706;26;20035;-71
2024/04/15 04:43:26;;;;;;;7.57;4.43;;;359.00;2329.60;;;;;;5390769;26;20553;-72
2024/04/15 04:45:53;;;;;;;11.30;4.70;;;359.00;2329.60;;;;;;5394129;26;20011;-72
2024/04/15 04:48:19;;;;;;;10.23;4.63;;;359.10;2329.60;;;;;;5393981;26;20439;-71
2024/04/15 04:50:46;;;;;;;10.88;4.55;;;359.10;2329.60;;;;;;5394649;26;19999;-71
2024/04/15 04:53:12;;;;;;;15.85;4.63;;;384.00;2329.60;;;;;;5397341;26;20013;-71
2024/04/15 04:55:37;;;;;;;15.07;4.97;;;359.30;2329.60;;;;;;5395322;26;20000;-71
2024/04/15 04:58:06;;;;;;;9.88;5.15;;;384.00;2329.60;;;;;;5389334;26;20427;-72
2024/04/15 05:00:32;;;;;;;9.15;4.40;;;384.00;2329.60;;;;;;5383895;26;20028;-71
2024/04/15 05:02:58;;;;;;;8.30;4.30;;;384.10;2329.60;;;;;;5379182;26;20004;-72
2024/04/15 05:05:23;;;;;;;9.15;4.32;;;384.20;2329.60;;;;;;5384292;26;20766;-71
2024/04/15 05:07:49;;;;;;;7.85;4.45;;;384.30;2329.60;;;;;;5394300;26;20000;-72
2024/04/15 05:10:15;;;;;;;5.80;4.10;;;384.40;2329.60;;;;;;5397962;26;20464;-73
2024/04/15 05:12:41;;;;;;;7.60;4.10;;;384.50;2329.60;;;;;;5393204;26;20000;-71
2024/04/15 05:15:07;;;;;;;9.23;4.20;;;384.60;2329.60;;;;;;5388445;26;20004;-73
2024/04/15 05:17:34;;;;;;;8.48;3.80;;;384.80;2329.60;;;;;;5395391;26;20011;-73
2024/04/15 05:20:00;;;;;;;8.00;3.97;;;384.90;2329.60;;;;;;5388346;26;20342;-73
2024/04/15 05:22:26;;;;;;;8.15;4.30;;;409.70;2355.20;;;;;;5378342;26;20000;-71
2024/04/15 05:24:53;;;;;;;8.00;3.80;;;409.80;2355.20;;;;;;5380559;26;20010;-70
2024/04/15 05:27:19;;;;;;;9.30;3.90;;;409.90;2355.20;;;;;;5383381;26;20069;-71
2024/04/15 05:29:45;;;;;;;9.07;3.70;;;410.10;2355.20;;;;;;5379331;26;19996;-71
2024/04/15 05:32:10;;;;;;;9.25;3.50;;;410.30;2355.20;;;;;;5410178;26;20331;-71
2024/04/15 05:34:37;;;;;;;10.20;3.83;;;410.50;2355.20;;;;;;5416282;26;20003;-70
2024/04/15 05:37:05;;;;;;;7.82;3.45;;;435.20;2355.20;;;;;;5382145;26;20004;-71
2024/04/15 05:39:31;;;;;;;8.63;3.80;;;435.40;2355.20;;;;;;5381961;26;20004;-71
2024/04/15 05:41:57;;;;;;;5.50;3.45;;;435.50;2355.20;;;;;;5395926;26;20006;-71
2024/04/15 05:44:23;;;;;;;6.32;3.65;;;435.70;2355.20;;;;;;5397053;26;20073;-71
2024/04/15 05:46:50;;;;;;;8.60;3.80;;;435.80;2355.20;;;;;;5385082;26;20010;-71
2024/04/15 05:49:16;;;;;;;6.22;3.67;;;436.10;2355.20;;;;;;5398910;26;20564;-71
2024/04/15 05:51:43;;;;;;;8.82;3.47;;;460.90;2380.80;;;;;;5389684;26;20010;-72
2024/04/15 05:54:09;;;;;;;6.20;3.50;;;461.20;2380.80;;;;;;5389024;26;20008;-71
2024/04/15 05:56:35;;;;;;;11.70;3.55;;;461.30;2380.80;;;;;;5389299;26;20009;-71
2024/04/15 05:59:00;;;;;;;8.55;3.47;;;461.40;2355.20;;;;;;5390452;26;19996;-71
2024/04/15 06:01:26;;;;;;;7.60;3.00;;;461.70;2329.60;;;;;;5400885;26;20008;-71
2024/04/15 06:03:52;;;;;;;8.15;3.30;;;486.60;2201.60;;;;;;5382919;26;20016;-72
2024/04/15 06:06:17;;;;;;;6.10;3.05;;;486.60;2176.00;;;;;;5382054;26;20002;-72
2024/04/15 06:08:43;;;;;;;4.40;3.10;;;486.70;2124.80;;;;;;5391566;26;20003;-72
2024/04/15 06:11:09;;;;;;;5.30;2.83;;;486.80;2099.20;;;;;;5406899;26;19999;-71
2024/04/15 06:13:34;;;;;;;9.75;3.30;;;487.00;2073.60;;;;;;5393349;26;20010;-71
2024/04/15 06:16:00;;;;;;;7.28;2.83;;;487.00;2073.60;;;;;;5381200;26;20014;-71
2024/04/15 06:18:26;;;;;;;9.25;2.97;;;487.20;2048.00;;;;;;5381338;26;20073;-72
2024/04/15 06:20:52;;;;;;;6.75;3.17;;;487.30;2048.00;;;;;;5396017;26;20073;-72
2024/04/15 06:23:17;;;;;;;4.50;2.75;;;512.10;1996.80;;;;;;5380423;26;20004;-73
2024/04/15 06:25:43;;;;;;;5.88;2.80;;;512.20;1920.00;;;;;;5380290;26;19997;-72
2024/04/15 06:28:09;;;;;;;4.40;2.40;;;512.30;1843.20;;;;;;5385814;26;20023;-71
2024/04/15 06:30:35;;;;;;;5.97;2.50;;;512.50;1817.60;;;;;;5388718;26;20456;-72
2024/04/15 06:33:01;;;;;;;6.85;2.72;;;512.60;1843.20;;;;;;5397563;26;20347;-71
2024/04/15 06:35:27;;;;;;;5.05;2.60;;;512.70;1792.00;;;;;;5408518;26;20006;-71
2024/04/15 06:37:52;;;;;;;5.07;2.45;;;512.70;1766.40;;;;;;5394892;26;20434;-72
2024/04/15 06:40:18;;;;;;;7.40;2.50;;;512.80;1792.00;;;;;;5380228;26;20000;-71
2024/04/15 06:42:46;;;;;;;5.78;2.42;;;512.90;1766.40;;;;;;5381048;26;20015;-71
2024/04/15 06:45:12;;;;;;;4.45;2.78;;;537.70;1766.40;;;;;;5380541;26;20004;-71
2024/04/15 06:47:38;;;;;;;7.97;2.80;;;537.80;1766.40;;;;;;5380797;26;20575;-72
2024/04/15 06:50:04;;;;;;;6.72;2.80;;;538.00;1766.40;;;;;;5383295;26;20019;-72
2024/04/15 06:52:30;;;;;;;10.55;3.10;;;563.40;1740.80;;;;;;5385997;26;20082;-72
2024/04/15 06:54:55;;;;;;;5.68;2.90;;;666.10;1433.60;;;;;;5380866;26;20360;-72
2024/04/15 06:57:21;;;;;;;5.88;2.80;;;717.60;1254.40;;;;;;5384974;26;20014;-71
2024/04/15 06:59:47;;;;;;;4.00;2.55;;;691.60;1280.00;;;;;;5414184;26;20003;-72
2024/04/15 07:02:13;;;;;;;11.88;2.80;;;615.20;1459.20;;;;;;5392990;26;20081;-72
2024/04/15 07:04:39;;;;;;;6.82;2.42;;;614.60;1484.80;;;;;;5391098;26;19996;-72
2024/04/15 07:07:05;;;;;;;7.63;2.72;;;589.30;1536.00;;;;;;5400441;26;20342;-71
2024/04/15 07:09:30;;;;;;;9.05;3.42;;;589.00;1587.20;;;;;;5388567;26;20019;-71
2024/04/15 07:11:56;;;;;;;4.90;2.22;;;588.90;1612.80;;;;;;5380405;26;20015;-71
2024/04/15 07:14:22;;;;;;;6.47;2.88;;;564.10;1561.60;;;;;;5382490;26;20004;-71
2024/04/15 07:16:47;;;;;;;4.05;2.40;;;564.10;1561.60;;;;;;5380906;26;20019;-71
2024/04/15 07:19:13;;;;;;;5.65;2.42;;;588.90;1561.60;;;;;;5408978;26;20077;-71
2024/04/15 07:21:38;;;;;;;7.40;2.38;;;589.10;1536.00;;;;;;5402612;26;20011;-71
2024/04/15 07:24:04;;;;;;;7.10;2.50;;;589.10;1536.00;;;;;;5392669;26;20004;-73
2024/04/15 07:26:30;;;;;;;7.93;2.55;;;589.30;1536.00;;;;;;5409152;26;20008;-72
2024/04/15 07:28:56;;;;;;;5.55;2.58;;;589.40;1536.00;;;;;;5385818;26;20015;-71
2024/04/15 07:31:22;;;;;;;6.78;2.70;;;589.40;1536.00;;;;;;5402061;26;20024;-71
2024/04/15 07:33:48;;;;;;;5.38;2.50;;;589.50;1484.80;;;;;;5381424;26;20004;-72
2024/04/15 07:36:13;;;;;;;4.93;2.55;;;589.70;1510.40;;;;;;5415782;26;20014;-72
2024/04/15 07:38:39;;;;;;;7.10;2.50;;;589.70;1484.80;;;;;;5387355;26;20339;-72
2024/04/15 07:41:05;;;;;;;9.57;2.78;;;614.60;1510.40;;;;;;5397356;26;20051;-72
2024/04/15 07:43:30;;;;;;;5.70;2.67;;;614.70;1459.20;;;;;;5388141;26;20000;-72
2024/04/15 07:45:56;;;;;;;10.23;2.70;;;614.80;1433.60;;;;;;5383199;26;20008;-72
2024/04/15 07:48:22;;;;;;;5.90;2.33;;;614.80;1408.00;;;;;;5380921;26;19996;-72
2024/04/15 07:50:47;;;;;;;6.85;2.47;;;614.80;1408.00;;;;;;5377732;26;20081;-72
2024/04/15 07:53:13;;;;;;;9.18;2.70;;;615.00;1382.40;;;;;;5391440;26;20015;-73
2024/04/15 07:55:47;;;;;;;6.03;2.53;;;615.10;1382.40;;;;;;5388274;26;20010;-73
2024/04/15 07:58:12;;;;;;;8.43;2.40;;;615.30;1356.80;;;;;;5385293;26;20000;-72
2024/04/15 08:00:39;;;;;;;5.35;2.13;;;640.10;1331.20;;;;;;5380471;26;20019;-72
2024/04/15 08:03:05;;;;;;;4.70;2.33;;;640.30;1305.60;;;;;;5399564;26;19995;-71
2024/04/15 08:05:32;;;;;;;5.57;2.10;;;640.40;1305.60;;;;;;5379231;26;20004;-71
2024/04/15 08:07:58;;;;;;;5.28;2.38;;;640.40;1305.60;;;;;;5387955;26;20015;-72
2024/04/15 08:10:23;;;;;;;10.52;2.83;;;640.70;1331.20;;;;;;5393201;26;20000;-72
2024/04/15 08:12:49;;;;;;;6.80;2.15;;;665.80;1331.20;;;;;;5393918;26;20003;-72
2024/04/15 08:15:15;;;;;;;9.32;2.40;;;640.90;1305.60;;;;;;5414640;26;19996;-71
2024/04/15 08:17:40;;;;;;;7.10;2.20;;;665.90;1331.20;;;;;;5380906;26;20012;-72
2024/04/15 08:20:08;;;;;;;6.20;2.22;;;;;;;;;;5386192;26;20077;-72
2024/04/15 08:22:33;;;;;;;7.43;2.00;;;666.40;1228.80;;;;;;5379422;26;20005;-72
2024/04/15 08:24:59;;;;;;;12.57;2.45;;;666.20;1228.80;;;;;;5386936;26;20426;-72
2024/04/15 08:27:25;;;;;;;10.90;2.50;;;666.20;1228.80;;;;;;5389321;26;20359;-72
2024/04/15 08:29:50;;;;;;;4.93;2.20;;;666.00;1228.80;;;;;;5398443;26;20431;-72
2024/04/15 08:32:16;;;;;;;7.07;2.22;;;;;;;;;;5392773;26;19992;-71
2024/04/15 08:34:42;;;;;;;5.72;2.10;;;691.30;1203.20;;;;;;5388835;26;20778;-71
2024/04/15 08:37:08;;;;;;;10.82;2.20;;;;;;;;;;5378959;26;20805;-71
2024/04/15 08:39:35;;;;;;;5.53;2.28;;;691.80;1177.60;;;;;;5399122;26;20018;-71
2024/04/15 08:42:16;;;;;;;12.73;2.67;;;691.80;1612.80;;;;;;5401782;26;19999;-71
2024/04/15 08:44:44;;;;;;;6.35;2.83;;;691.90;1331.20;;;;;;5390941;26;20008;-72
2024/04/15 08:47:17;;;;;;;5.57;1.95;;;692.00;1177.60;;;;;;5378470;26;20326;-70
2024/04/15 08:49:42;;;;;;;18.35;2.50;;;691.80;1203.20;;;;;;5388911;26;20308;-71
2024/04/15 08:52:14;;;;;;;12.85;2.28;;;691.80;1152.00;;;;;;5378415;26;20011;-70
2024/04/15 08:54:40;;;;;;;8.68;2.20;;;691.90;1152.00;;;;;;5388863;26;20000;-71
2024/04/15 08:57:08;;;;;;;10.55;2.60;;;716.90;1152.00;;;;;;5383557;26;20015;-71
2024/04/15 08:59:36;;;;;;;9.20;2.50;;;692.10;1126.40;;;;;;5378887;26;20019;-70
2024/04/15 09:02:05;;;;;;;6.95;2.50;;;692.00;1126.40;;;;;;5379499;26;20004;-71
2024/04/15 09:04:33;;;;;;;9.20;2.30;;;692.00;1126.40;;;;;;5389371;26;20014;-71
2024/04/15 09:06:59;;;;;;;11.52;2.58;;;717.00;1152.00;;;;;;5414435;26;19996;-71
2024/04/15 09:09:25;;;;;;;6.18;2.65;;;716.80;1152.00;;;;;;5413912;26;20327;-71
2024/04/15 09:11:52;;;;;;;9.73;2.70;;;716.80;1152.00;;;;;;5408509;26;20011;-73
2024/04/15 09:14:18;;;;;;;6.53;2.72;;;716.90;1152.00;;;;;;5383875;26;20006;-71
2024/04/15 09:16:45;;;;;;;7.60;2.17;;;717.00;1152.00;;;;;;5403228;26;20004;-71
2024/04/15 09:19:11;;;;;;;5.97;2.50;;;717.60;1152.00;;;;;;5407916;26;19996;-71
2024/04/15 09:21:37;;;;;;;6.35;2.55;;;717.60;1152.00;;;;;;5386319;26;20043;-72
2024/04/15 09:24:03;;;;;;;7.18;2.60;;;742.40;1203.20;;;;;;5382756;26;19996;-72
2024/04/15 09:26:29;;;;;;;11.18;2.70;;;717.70;1152.00;;;;;;5405488;26;20519;-72
2024/04/15 09:28:55;;;;;;;7.10;2.70;;;742.80;1177.60;;;;;;5400540;26;20008;-72
2024/04/15 09:31:21;;;;;;;12.50;2.70;;;742.70;1177.60;;;;;;5384782;26;19996;-71
2024/04/15 09:33:48;;;;;;;8.88;2.85;;;742.50;1177.60;;;;;;5388121;26;20004;-72
2024/04/15 09:36:14;;;;;;;9.90;2.80;;;742.70;1177.60;;;;;;5378541;26;20000;-72
2024/04/15 09:38:41;;;;;;;7.18;2.22;;;743.10;1152.00;;;;;;5383626;26;20004;-71
2024/04/15 09:41:10;;;;;;;7.68;2.90;;;742.70;1152.00;;;;;;5402061;26;20000;-73
2024/04/15 09:43:37;;;;;;;10.55;2.65;;;742.90;1177.60;;;;;;5377562;26;20023;-72
2024/04/15 09:46:04;;;;;;;13.80;2.80;;;743.20;1152.00;;;;;;5390849;26;20010;-72
2024/04/15 09:48:31;;;;;;;8.52;2.80;;;743.00;1152.00;;;;;;5413765;26;20045;-72
2024/04/15 09:51:04;;;;;;;6.30;2.70;;;742.90;1177.60;;;;;;5413778;26;20365;-70
2024/04/15 09:53:41;;;;;;;6.90;2.60;;;742.90;1152.00;;;;;;5413134;26;20007;-72
2024/04/15 09:56:16;;;;;;;13.05;2.72;;;743.00;1152.00;;;;;;5400138;26;20439;-72
2024/04/15 09:58:44;;;;;;;8.10;2.78;;;743.00;1177.60;;;;;;5384032;26;19997;-70
2024/04/15 10:01:17;;;;;;;7.20;2.70;;;743.00;1152.00;;;;;;5381041;26;20018;-72
2024/04/15 10:03:46;;;;;;;8.18;2.55;;;768.00;1177.60;;;;;;5384482;26;20000;-71
2024/04/15 10:06:14;;;;;;;8.35;2.80;;;;;;;;;;5388190;26;20000;-71
2024/04/15 10:08:40;;;;;;;5.63;2.70;;;;;;;;;;5394562;26;20008;-71
2024/04/15 10:11:06;;;;;;;14.90;3.20;;;;;;;;;;5391060;26;20010;-72
2024/04/15 10:13:33;;;;;;;9.93;2.67;;;;;;;;;;5385578;26;20007;-71
2024/04/15 10:16:00;;;;;;;11.02;2.55;;;;;;;;;;5378348;26;20004;-70
2024/04/15 10:18:29;;;;;;;8.45;2.83;;;;;;;;;;5393753;26;20032;-70
2024/04/15 10:20:55;;;;;;;7.80;2.72;;;768.10;1152.00;;;;;;5396929;26;20413;-70
2024/04/15 10:23:24;;;;;;;13.77;2.90;;;743.20;1152.00;;;;;;5392888;26;20003;-70
2024/04/15 10:25:51;;;;;;;9.80;2.95;;;768.00;1152.00;;;;;;5391863;26;20000;-71
2024/04/15 10:28:17;;;;;;;6.78;2.50;;;768.00;1126.40;;;;;;5405253;26;20051;-74
2024/04/15 10:30:46;;;;;;;6.32;2.60;;;768.00;1152.00;;;;;;5402102;26;20000;-73
2024/04/15 10:33:13;;;;;;;8.13;2.85;;;743.20;1152.00;;;;;;5398431;26;20000;-72
2024/04/15 10:35:40;;;;;;;8.02;2.83;;;743.30;1152.00;;;;;;5411145;26;20014;-72
2024/04/15 10:38:07;;;;;;;9.55;2.88;;;743.10;1152.00;;;;;;5395283;26;20000;-70
2024/04/15 10:40:37;;;;;;;5.32;2.50;;;743.20;1152.00;;;;;;5397211;26;20011;-71
2024/04/15 10:43:04;;;;;;;6.45;2.83;;;743.10;1152.00;;;;;;5392340;26;19996;-71
2024/04/15 10:45:31;;;;;;;11.88;2.78;;;768.00;1152.00;;;;;;5389141;26;20004;-71
2024/04/15 10:47:57;;;;;;;8.18;2.95;;;;;;;;;;5401687;26;20015;-74
2024/04/15 10:50:23;;;;;;;6.93;2.90;;;743.30;1152.00;;;;;;5405628;26;20011;-72
2024/04/15 10:52:49;;;;;;;10.18;4.32;;;768.00;1152.00;;;;;;5403283;26;20004;-72
2024/04/15 10:55:16;;;;;;;7.07;3.20;;;768.10;1177.60;;;;;;5403023;26;20015;-74
2024/04/15 10:57:42;;;;;;;11.43;2.88;;;768.60;1126.40;;;;;;5402800;26;19999;-76
2024/04/15 11:00:09;;;;;;;5.95;2.50;;;;;;;;;;5400935;26;20064;-71
2024/04/15 11:02:42;;;;;;;7.75;2.72;;;793.60;1152.00;;;;;;5393952;26;20032;-71
2024/04/15 11:05:07;;;;;;;10.73;2.55;;;768.90;1075.20;;;;;;5395923;26;20001;-72
2024/04/15 11:07:34;;;;;;;8.15;2.50;;;;;;;;;;5402170;26;20015;-70
2024/04/15 11:10:00;;;;;;;7.95;2.80;;;;;;;;;;5405501;26;20069;-73
2024/04/15 11:12:26;;;;;;;7.05;2.65;;;;;;;;;;5391955;26;20004;-71
2024/04/15 11:14:55;;;;;;;8.32;2.60;;;794.20;998.40;;;;;;5392063;26;20004;-70
2024/04/15 11:17:22;;;;;;;7.38;2.53;;;794.10;998.40;;;;;;5387435;26;20001;-71
2024/04/15 11:20:08;;;;;;;5.28;2.45;;;794.40;998.40;;;;;;5400708;26;20077;-73
2024/04/15 11:22:35;;;;;;;13.95;2.50;;;794.40;972.80;;;;;;5405887;26;20468;-70
2024/04/15 11:25:01;;;;;;;7.93;2.30;;;794.00;972.80;;;;;;5392017;26;20496;-74
2024/04/15 11:27:33;;;;;;;6.20;2.22;;;794.10;998.40;;;;;;5397928;26;19999;-74
2024/04/15 11:30:01;;;;;;;7.82;2.42;;;794.30;998.40;;;;;;5418098;26;20002;-75
2024/04/15 11:32:28;;;;;;;9.50;2.47;;;794.30;998.40;;;;;;5397599;26;20074;-72
2024/04/15 11:34:55;;;;;;;5.25;2.30;;;794.00;998.40;;;;;;5381398;26;20477;-72
2024/04/15 11:37:21;;;;;;;17.02;3.17;;;793.90;1024.00;;;;;;5382550;26;20451;-73
2024/04/15 11:39:47;;;;;;;12.80;2.85;;;793.80;998.40;;;;;;5382566;26;20004;-73
2024/04/15 11:42:15;;;;;;;6.13;2.50;;;794.10;998.40;;;;;;5389138;26;20439;-74
2024/04/15 11:44:41;;;;;;;6.80;2.58;;;794.00;972.80;;;;;;5416715;26;19999;-73
2024/04/15 11:47:13;;;;;;;8.18;2.72;;;794.10;972.80;;;;;;5405835;26;20055;-73
2024/04/15 11:49:39;;;;;;;12.23;2.95;;;794.00;972.80;;;;;;5381773;26;20004;-73
2024/04/15 11:52:05;;;;;;;6.10;2.33;;;794.00;998.40;;;;;;5415803;26;19999;-75
2024/04/15 11:54:32;;;;;;;9.50;2.40;;;794.40;972.80;;;;;;5407169;26;20417;-72
2024/04/15 11:56:58;;;;;;;6.50;2.58;;;794.20;972.80;;;;;;5379296;26;20024;-72
2024/04/15 11:59:24;;;;;;;6.53;2.25;;;794.40;972.80;;;;;;5384515;26;20690;-72
2024/04/15 12:01:58;;;;;;;11.60;2.67;;;794.40;972.80;;;;;;5397478;26;20004;-68
2024/04/15 12:04:24;;;;;;;6.82;2.42;;;794.40;972.80;;;;;;5381524;26;19996;-72
2024/04/15 12:06:53;;;;;;;6.25;2.50;;;794.10;972.80;;;;;;5377885;26;20015;-69
2024/04/15 12:09:20;;;;;;;7.20;2.50;;;794.30;972.80;;;;;;5390078;26;20065;-71
2024/04/15 12:11:46;;;;;;;9.13;2.47;;;794.10;998.40;;;;;;5399779;26;20004;-70
2024/04/15 12:14:13;;;;;;;6.53;2.47;;;794.00;1024.00;;;;;;5383066;26;20000;-73
2024/04/15 12:16:40;;;;;;;6.10;2.42;;;794.50;998.40;;;;;;5394354;26;20000;-72
2024/04/15 12:19:06;;;;;;;7.00;2.70;;;819.70;972.80;;;;;;5379556;26;19996;-73
2024/04/15 12:21:32;;;;;;;5.03;2.47;;;819.90;972.80;;;;;;5380975;26;20025;-70
2024/04/15 12:23:58;;;;;;;3.50;2.17;;;819.50;947.20;;;;;;5380381;26;20008;-70